createdAt,value
2023-03-06T00:01:02.600Z,3.2
2023-03-06T00:11:04.482Z,3.2
2023-03-06T00:21:07.041Z,3
2023-03-06T00:24:01.552Z,3
2023-03-06T00:31:19.016Z,3
2023-03-06T00:41:20.879Z,2.9
2023-03-06T00:51:23.203Z,2.9
2023-03-06T01:01:25.357Z,2.8
2023-03-06T01:11:27.294Z,2.7
2023-03-06T01:21:29.870Z,2.4
2023-03-06T01:31:32.234Z,2.3
2023-03-06T01:41:34.048Z,2.3
2023-03-06T01:51:36.294Z,2.3
2023-03-06T02:01:38.629Z,2.2
2023-03-06T02:11:40.925Z,2.2
2023-03-06T02:21:42.876Z,2.2
2023-03-06T02:31:44.614Z,2.1
2023-03-06T02:41:47.048Z,2.2
2023-03-06T02:51:48.752Z,2.3
2023-03-06T03:01:51.353Z,2.2
2023-03-06T03:11:53.073Z,2.3
2023-03-06T03:21:55.259Z,2.2
2023-03-06T03:31:57.457Z,2.2
2023-03-06T03:41:59.426Z,2.2
2023-03-06T03:52:02.100Z,2
2023-03-06T04:02:04.592Z,2.1
2023-03-06T04:12:07.045Z,2
2023-03-06T04:22:09.698Z,2
2023-03-06T04:32:11.912Z,1.8
2023-03-06T04:42:14.116Z,1.8
2023-03-06T04:52:15.913Z,1.7
2023-03-06T05:02:18.106Z,1.7
2023-03-06T05:12:20.600Z,1.6
2023-03-06T05:22:23.047Z,1.6
2023-03-06T05:32:25.495Z,1.5
2023-03-06T05:42:28.597Z,1.4
2023-03-06T05:52:29.563Z,1.5
2023-03-06T06:02:31.611Z,1.5
2023-03-06T06:12:33.820Z,1.7
2023-03-06T06:32:38.193Z,1.7
2023-03-06T06:42:40.567Z,1.9
2023-03-06T06:52:43.133Z,1.8
2023-03-06T07:02:45.023Z,1.8
2023-03-06T07:12:47.136Z,1.9
2023-03-06T07:22:51.572Z,2
2023-03-06T07:32:50.820Z,2.1
2023-03-06T07:42:53.284Z,2.1
2023-03-06T07:52:56.020Z,2.2
2023-03-06T08:02:57.878Z,2.3
2023-03-06T08:12:59.688Z,2.2
2023-03-06T08:23:01.605Z,2.3
2023-03-06T08:33:03.342Z,2.2
2023-03-06T08:43:05.111Z,2
2023-03-06T08:53:07.243Z,1.9
2023-03-06T09:03:09.103Z,2.4
2023-03-06T09:13:11.069Z,2.3
2023-03-06T09:23:13.414Z,2.4
2023-03-06T09:33:16.023Z,2.4
2023-03-06T09:43:17.716Z,2.5
2023-03-06T10:03:21.658Z,2.8
2023-03-06T10:13:24.024Z,2.7
2023-03-06T10:23:26.361Z,2.7
2023-03-06T10:33:28.680Z,2.6
2023-03-06T10:43:30.665Z,2.7
2023-03-06T10:53:33.136Z,2.7
2023-03-06T11:03:35.658Z,2.7
2023-03-06T11:13:37.941Z,3
2023-03-06T11:23:39.921Z,3
2023-03-06T11:33:42.052Z,3.2
2023-03-06T11:43:44.386Z,3.5
2023-03-06T11:53:47.863Z,3.7
2023-03-06T12:03:49.430Z,3.7
2023-03-06T12:23:53.861Z,3.7
2023-03-06T12:43:58.179Z,3.7
2023-03-06T12:54:00.249Z,4
2023-03-06T13:04:02.036Z,4
2023-03-06T13:24:05.403Z,5
2023-03-06T13:34:08.095Z,4.7
2023-03-06T13:44:10.360Z,4.1
2023-03-06T13:54:12.430Z,4.2
2023-03-06T14:04:14.466Z,4.6
2023-03-06T14:14:17.072Z,4.8
2023-03-06T14:24:19.131Z,4.8
2023-03-06T14:34:21.255Z,4.9
2023-03-06T14:44:23.314Z,5.4
2023-03-06T14:54:25.669Z,5.7
2023-03-06T15:04:27.532Z,5.8
2023-03-06T15:14:29.932Z,5.8
2023-03-06T15:24:32.281Z,5.8
2023-03-06T15:34:34.592Z,5.8
2023-03-06T15:44:36.875Z,5.9
2023-03-06T15:54:39.232Z,5.9
2023-03-06T16:04:41.912Z,5.9
2023-03-06T16:24:46.603Z,5.5
2023-03-06T16:44:50.487Z,4.8
2023-03-06T16:54:52.371Z,4.3
2023-03-06T17:04:54.402Z,4.2
2023-03-06T17:24:59.349Z,4.1
2023-03-06T17:45:04.106Z,3.8
2023-03-06T17:55:06.560Z,3.6
2023-03-06T18:25:11.979Z,3.6
2023-03-06T18:35:13.884Z,3.4
2023-03-06T18:45:15.909Z,3.5
2023-03-06T19:05:20.478Z,3.2
2023-03-06T19:15:22.220Z,3.2
2023-03-06T19:25:24.204Z,3.2
2023-03-06T19:35:26.324Z,3.4
2023-03-06T19:55:31.177Z,3.4
2023-03-06T20:05:33.183Z,3.3
2023-03-06T20:15:35.695Z,3.3
2023-03-06T20:25:37.952Z,3.3
2023-03-06T20:35:39.698Z,3.3
2023-03-06T20:45:41.441Z,3.3
2023-03-06T20:55:43.338Z,3.3
2023-03-06T21:05:45.431Z,3.3
2023-03-06T21:15:47.175Z,3.4
2023-03-06T21:25:49.738Z,3.4
2023-03-06T21:35:51.855Z,3.3
2023-03-06T21:45:54.355Z,3.1
2023-03-06T21:55:56.523Z,3.2
2023-03-06T22:16:01.124Z,3
2023-03-06T22:56:10.251Z,2.3
2023-03-06T23:06:12.108Z,2.4
2023-03-06T23:16:14.659Z,2.3
2023-03-06T23:36:19.598Z,2.5
2023-03-06T23:46:21.465Z,2.6
2023-03-06T23:56:23.806Z,2.7
